GTI827 RPVP-RPLC
Flight info
| Callsign | GTI827 |
|---|---|
| Flight time | 0h 59m |
| Altitude | 35000 |
| Route | NOMYO1E NOMYO M646 MIA W16 OLIVA OLIVA5R |
| Aircraft | B76F/M-V/N |
Departure
| Time | 2026-04-25 09:45 |
|---|---|
| Airport | Puerto Princesa International Airport / PAF Antonio Bautista Air Base (RPVP) |
Arrival
| Time | 2026-04-25 10:45 |
|---|---|
| Airport | Clark International Airport / Clark Air Base (RPLC) |
| Time | Latitude | Longitude | Altitude | Speed | Heading |
|---|---|---|---|---|---|
| 2026-04-25 09:24 | 9.74503 | 118.74997 | 78 ft | 0 kts | 2° |
| 2026-04-25 09:37 | 9.74492 | 118.74996 | 78 ft | 2 kts | 2° |
| 2026-04-25 09:37 | 9.74477 | 118.74996 | 78 ft | 2 kts | 2° |
| 2026-04-25 09:37 | 9.74467 | 118.74995 | 78 ft | 2 kts | 2° |
| 2026-04-25 09:37 | 9.74452 | 118.74995 | 78 ft | 2 kts | 356° |
| 2026-04-25 09:38 | 9.74438 | 118.74998 | 78 ft | 2 kts | 334° |
| 2026-04-25 09:38 | 9.74430 | 118.75003 | 78 ft | 2 kts | 321° |
| 2026-04-25 09:38 | 9.74418 | 118.75018 | 78 ft | 2 kts | 295° |
| 2026-04-25 09:38 | 9.74413 | 118.75031 | 78 ft | 1 kts | 277° |
| 2026-04-25 09:39 | 9.74413 | 118.75037 | 78 ft | 0 kts | 272° |
| 2026-04-25 09:41 | 9.74414 | 118.75017 | 78 ft | 4 kts | 275° |
| 2026-04-25 09:41 | 9.74416 | 118.74989 | 78 ft | 6 kts | 272° |
| 2026-04-25 09:41 | 9.74419 | 118.74931 | 78 ft | 9 kts | 272° |
| 2026-04-25 09:42 | 9.74422 | 118.74830 | 78 ft | 11 kts | 272° |
| 2026-04-25 09:42 | 9.74423 | 118.74783 | 78 ft | 7 kts | 268° |
| 2026-04-25 09:42 | 9.74414 | 118.74735 | 78 ft | 6 kts | 244° |
| 2026-04-25 09:42 | 9.74388 | 118.74711 | 78 ft | 4 kts | 206° |
| 2026-04-25 09:43 | 9.74351 | 118.74704 | 78 ft | 4 kts | 187° |
| 2026-04-25 09:43 | 9.74334 | 118.74703 | 78 ft | 3 kts | 181° |
| 2026-04-25 09:43 | 9.74297 | 118.74703 | 78 ft | 4 kts | 179° |
| 2026-04-25 09:43 | 9.74276 | 118.74708 | 78 ft | 1 kts | 152° |
| 2026-04-25 09:44 | 9.74271 | 118.74712 | 78 ft | 2 kts | 139° |
| 2026-04-25 09:44 | 9.74258 | 118.74734 | 78 ft | 5 kts | 107° |
| 2026-04-25 09:44 | 9.74255 | 118.74792 | 78 ft | 18 kts | 92° |
| 2026-04-25 09:44 | 9.74228 | 118.75364 | 78 ft | 105 kts | 93° |
| 2026-04-25 09:45 | 9.74183 | 118.76354 | 79 ft | 171 kts | 92° |
| 2026-04-25 09:45 | 9.74145 | 118.77220 | 322 ft | 195 kts | 91° |
| 2026-04-25 09:45 | 9.74357 | 118.78868 | 1939 ft | 182 kts | 65° |
| 2026-04-25 09:45 | 9.75190 | 118.79967 | 2491 ft | 211 kts | 39° |
| 2026-04-25 09:46 | 9.76347 | 118.80557 | 3933 ft | 187 kts | 19° |
| 2026-04-25 09:46 | 9.77696 | 118.80889 | 4361 ft | 222 kts | 13° |
| 2026-04-25 09:46 | 9.79320 | 118.81157 | 4647 ft | 242 kts | 12° |
| 2026-04-25 09:46 | 9.81020 | 118.81503 | 5060 ft | 258 kts | 14° |
| 2026-04-25 09:47 | 9.82830 | 118.81866 | 5638 ft | 266 kts | 14° |
| 2026-04-25 09:47 | 9.84028 | 118.82121 | 6049 ft | 270 kts | 15° |
| 2026-04-25 09:47 | 9.86463 | 118.82655 | 7145 ft | 268 kts | 15° |
| 2026-04-25 09:47 | 9.88308 | 118.83069 | 7801 ft | 273 kts | 14° |
| 2026-04-25 09:48 | 9.90206 | 118.83234 | 8355 ft | 285 kts | 1° |
| 2026-04-25 09:48 | 9.92264 | 118.83172 | 8733 ft | 302 kts | 1° |
| 2026-04-25 09:48 | 9.94426 | 118.83118 | 9116 ft | 319 kts | 1° |
| 2026-04-25 09:48 | 9.95914 | 118.83078 | 9370 ft | 330 kts | 1° |
| 2026-04-25 09:49 | 9.98973 | 118.82988 | 10499 ft | 329 kts | 0° |
| 2026-04-25 09:49 | 10.00526 | 118.82943 | 10793 ft | 338 kts | 0° |
| 2026-04-25 09:49 | 10.02857 | 118.82873 | 11536 ft | 340 kts | 360° |
| 2026-04-25 09:49 | 10.06054 | 118.82778 | 12425 ft | 346 kts | 359° |
| 2026-04-25 09:50 | 10.08454 | 118.82707 | 13093 ft | 349 kts | 359° |
| 2026-04-25 09:50 | 10.10886 | 118.82650 | 13743 ft | 351 kts | 4° |
| 2026-04-25 09:50 | 10.13310 | 118.83069 | 14354 ft | 353 kts | 21° |
| 2026-04-25 09:50 | 10.14789 | 118.83737 | 14783 ft | 353 kts | 32° |
| 2026-04-25 09:51 | 10.17293 | 118.85865 | 15561 ft | 357 kts | 48° |
| 2026-04-25 09:51 | 10.18993 | 118.87708 | 16214 ft | 358 kts | 47° |
| 2026-04-25 09:51 | 10.20717 | 118.89550 | 16820 ft | 360 kts | 47° |
| 2026-04-25 09:51 | 10.22420 | 118.91396 | 17354 ft | 365 kts | 47° |
| 2026-04-25 09:52 | 10.23574 | 118.92654 | 17737 ft | 367 kts | 48° |
| 2026-04-25 09:52 | 10.25922 | 118.95222 | 18445 ft | 373 kts | 48° |
| 2026-04-25 09:52 | 10.27687 | 118.97159 | 18993 ft | 377 kts | 48° |
| 2026-04-25 09:52 | 10.28859 | 118.98446 | 19354 ft | 379 kts | 48° |
| 2026-04-25 09:53 | 10.31276 | 119.01102 | 20026 ft | 385 kts | 48° |
| 2026-04-25 09:53 | 10.33099 | 119.03107 | 20532 ft | 389 kts | 47° |
| 2026-04-25 09:53 | 10.35126 | 119.04912 | 20996 ft | 393 kts | 33° |
| 2026-04-25 09:53 | 10.37578 | 119.06211 | 21464 ft | 397 kts | 25° |
| 2026-04-25 09:54 | 10.39237 | 119.06966 | 21764 ft | 399 kts | 25° |
| 2026-04-25 09:54 | 10.41769 | 119.08139 | 22202 ft | 403 kts | 25° |
| 2026-04-25 09:54 | 10.44256 | 119.09286 | 22636 ft | 406 kts | 25° |
| 2026-04-25 09:54 | 10.47664 | 119.10857 | 23599 ft | 398 kts | 25° |
| 2026-04-25 09:55 | 10.50112 | 119.11981 | 24096 ft | 400 kts | 25° |
| 2026-04-25 09:55 | 10.52605 | 119.13131 | 24408 ft | 406 kts | 25° |
| 2026-04-25 09:55 | 10.55136 | 119.14298 | 24878 ft | 407 kts | 25° |
| 2026-04-25 09:55 | 10.56820 | 119.15073 | 25141 ft | 410 kts | 25° |
| 2026-04-25 09:56 | 10.60258 | 119.16658 | 25706 ft | 413 kts | 25° |
| 2026-04-25 09:56 | 10.62881 | 119.17866 | 26091 ft | 416 kts | 24° |
| 2026-04-25 09:56 | 10.65486 | 119.19067 | 26523 ft | 418 kts | 24° |
| 2026-04-25 09:56 | 10.68155 | 119.20298 | 26911 ft | 421 kts | 24° |
| 2026-04-25 09:57 | 10.70811 | 119.21523 | 27272 ft | 423 kts | 24° |
| 2026-04-25 09:57 | 10.73484 | 119.22755 | 27681 ft | 425 kts | 24° |
| 2026-04-25 09:57 | 10.76164 | 119.23991 | 28017 ft | 428 kts | 24° |
| 2026-04-25 09:57 | 10.77981 | 119.24828 | 28248 ft | 429 kts | 24° |
| 2026-04-25 09:58 | 10.81595 | 119.26497 | 29003 ft | 423 kts | 24° |
| 2026-04-25 09:58 | 10.84202 | 119.27700 | 29906 ft | 410 kts | 24° |
| 2026-04-25 09:58 | 10.86755 | 119.28879 | 30708 ft | 398 kts | 24° |
| 2026-04-25 09:58 | 10.89187 | 119.30003 | 31486 ft | 385 kts | 24° |
| 2026-04-25 09:59 | 10.91579 | 119.31107 | 31907 ft | 383 kts | 24° |
| 2026-04-25 09:59 | 10.93216 | 119.31863 | 31974 ft | 386 kts | 24° |
| 2026-04-25 09:59 | 10.95662 | 119.32993 | 32170 ft | 389 kts | 24° |
| 2026-04-25 09:59 | 10.98967 | 119.34520 | 32528 ft | 390 kts | 24° |
| 2026-04-25 10:00 | 11.01437 | 119.35662 | 32697 ft | 393 kts | 24° |
| 2026-04-25 10:00 | 11.03936 | 119.36817 | 33138 ft | 388 kts | 24° |
| 2026-04-25 10:00 | 11.06346 | 119.37932 | 33746 ft | 380 kts | 24° |
| 2026-04-25 10:00 | 11.08779 | 119.39057 | 33826 ft | 385 kts | 24° |
| 2026-04-25 10:01 | 11.11183 | 119.40168 | 34147 ft | 381 kts | 24° |
| 2026-04-25 10:01 | 11.13587 | 119.41280 | 34562 ft | 377 kts | 24° |
| 2026-04-25 10:01 | 11.18374 | 119.43495 | 34745 ft | 378 kts | 24° |
| 2026-04-25 10:02 | 11.20766 | 119.44602 | 34876 ft | 377 kts | 24° |
| 2026-04-25 10:02 | 11.23157 | 119.45709 | 34863 ft | 380 kts | 24° |
| 2026-04-25 10:02 | 11.24766 | 119.46455 | 34882 ft | 381 kts | 24° |
| 2026-04-25 10:03 | 11.32920 | 119.50230 | 34872 ft | 392 kts | 24° |
| 2026-04-25 10:03 | 11.37938 | 119.52555 | 34866 ft | 399 kts | 24° |
| 2026-04-25 10:04 | 11.43029 | 119.54914 | 34859 ft | 406 kts | 24° |
| 2026-04-25 10:04 | 11.47366 | 119.56925 | 34856 ft | 412 kts | 24° |
| 2026-04-25 10:05 | 11.53516 | 119.59778 | 34854 ft | 420 kts | 24° |
| 2026-04-25 10:05 | 11.57976 | 119.61848 | 34860 ft | 427 kts | 24° |
| 2026-04-25 10:06 | 11.64300 | 119.64784 | 34858 ft | 436 kts | 24° |
| 2026-04-25 10:06 | 11.69772 | 119.67326 | 34855 ft | 443 kts | 24° |
| 2026-04-25 10:07 | 11.75414 | 119.69997 | 34855 ft | 451 kts | 24° |
| 2026-04-25 10:07 | 11.81162 | 119.72723 | 34850 ft | 459 kts | 24° |
| 2026-04-25 10:08 | 11.87004 | 119.75494 | 34854 ft | 466 kts | 24° |
| 2026-04-25 10:08 | 11.92909 | 119.78298 | 34854 ft | 474 kts | 24° |
| 2026-04-25 10:09 | 11.98891 | 119.81139 | 34854 ft | 480 kts | 24° |
| 2026-04-25 10:09 | 12.04967 | 119.84027 | 34858 ft | 486 kts | 24° |
| 2026-04-25 10:10 | 12.10101 | 119.86468 | 34865 ft | 488 kts | 24° |
| 2026-04-25 10:10 | 12.17226 | 119.89858 | 34863 ft | 485 kts | 24° |
| 2026-04-25 10:11 | 12.22335 | 119.92290 | 34867 ft | 486 kts | 24° |
| 2026-04-25 10:11 | 12.29456 | 119.95681 | 34871 ft | 487 kts | 24° |
| 2026-04-25 10:12 | 12.35578 | 119.98598 | 34869 ft | 486 kts | 24° |
| 2026-04-25 10:13 | 12.44783 | 120.02988 | 34868 ft | 488 kts | 24° |
| 2026-04-25 10:13 | 12.49910 | 120.05434 | 34869 ft | 488 kts | 24° |
| 2026-04-25 10:14 | 12.57084 | 120.08858 | 34869 ft | 487 kts | 24° |
| 2026-04-25 10:14 | 12.63241 | 120.11800 | 34865 ft | 487 kts | 24° |
| 2026-04-25 10:15 | 12.69301 | 120.14696 | 34869 ft | 487 kts | 24° |
| 2026-04-25 10:15 | 12.75466 | 120.17643 | 34874 ft | 488 kts | 24° |
| 2026-04-25 10:16 | 12.81609 | 120.20583 | 34876 ft | 488 kts | 24° |
| 2026-04-25 10:16 | 12.87734 | 120.23514 | 34876 ft | 488 kts | 24° |
| 2026-04-25 10:17 | 12.93891 | 120.26463 | 34879 ft | 488 kts | 24° |
| 2026-04-25 10:17 | 13.00017 | 120.29398 | 34887 ft | 488 kts | 24° |
| 2026-04-25 10:18 | 13.06164 | 120.32346 | 34890 ft | 489 kts | 24° |
| 2026-04-25 10:18 | 13.12344 | 120.35310 | 34874 ft | 488 kts | 24° |
| 2026-04-25 10:19 | 13.18473 | 120.38252 | 34878 ft | 488 kts | 24° |
| 2026-04-25 10:19 | 13.24565 | 120.41178 | 34725 ft | 483 kts | 24° |
| 2026-04-25 10:19 | 13.27564 | 120.42620 | 34629 ft | 472 kts | 24° |
| 2026-04-25 10:20 | 13.30479 | 120.44022 | 34596 ft | 459 kts | 24° |
| 2026-04-25 10:20 | 13.32392 | 120.44942 | 34436 ft | 454 kts | 24° |
| 2026-04-25 10:20 | 13.35245 | 120.46311 | 33868 ft | 453 kts | 24° |
| 2026-04-25 10:20 | 13.39031 | 120.48129 | 33211 ft | 449 kts | 24° |
| 2026-04-25 10:21 | 13.40896 | 120.49024 | 32910 ft | 447 kts | 24° |
| 2026-04-25 10:21 | 13.43720 | 120.50381 | 32486 ft | 443 kts | 24° |
| 2026-04-25 10:21 | 13.47424 | 120.52161 | 31899 ft | 439 kts | 23° |
| 2026-04-25 10:21 | 13.50174 | 120.53483 | 31469 ft | 436 kts | 23° |
| 2026-04-25 10:22 | 13.51976 | 120.54349 | 31189 ft | 434 kts | 23° |
| 2026-04-25 10:22 | 13.54643 | 120.55631 | 30854 ft | 429 kts | 23° |
| 2026-04-25 10:22 | 13.57305 | 120.56912 | 30438 ft | 426 kts | 23° |
| 2026-04-25 10:22 | 13.60807 | 120.58598 | 29892 ft | 422 kts | 23° |
| 2026-04-25 10:23 | 13.63438 | 120.59866 | 29521 ft | 418 kts | 22° |
| 2026-04-25 10:23 | 13.66011 | 120.61106 | 29120 ft | 415 kts | 22° |
| 2026-04-25 10:23 | 13.68584 | 120.62347 | 28714 ft | 412 kts | 22° |
| 2026-04-25 10:23 | 13.71119 | 120.63570 | 28342 ft | 409 kts | 22° |
| 2026-04-25 10:24 | 13.73669 | 120.64799 | 27928 ft | 407 kts | 22° |
| 2026-04-25 10:24 | 13.75334 | 120.65603 | 27650 ft | 405 kts | 23° |
| 2026-04-25 10:24 | 13.78680 | 120.67218 | 27114 ft | 402 kts | 23° |
| 2026-04-25 10:24 | 13.81188 | 120.68428 | 26699 ft | 400 kts | 23° |
| 2026-04-25 10:25 | 13.83665 | 120.69625 | 26295 ft | 398 kts | 23° |
| 2026-04-25 10:25 | 13.86170 | 120.70835 | 25892 ft | 396 kts | 23° |
| 2026-04-25 10:25 | 13.88652 | 120.72034 | 25483 ft | 394 kts | 23° |
| 2026-04-25 10:25 | 13.91092 | 120.73213 | 25093 ft | 391 kts | 23° |
| 2026-04-25 10:26 | 13.92737 | 120.74009 | 24817 ft | 390 kts | 23° |
| 2026-04-25 10:26 | 13.95987 | 120.75580 | 24325 ft | 386 kts | 24° |
| 2026-04-25 10:26 | 13.97614 | 120.76367 | 24066 ft | 385 kts | 24° |
| 2026-04-25 10:26 | 14.00055 | 120.77549 | 23655 ft | 383 kts | 23° |
| 2026-04-25 10:27 | 14.03217 | 120.79079 | 23168 ft | 379 kts | 24° |
| 2026-04-25 10:27 | 14.05599 | 120.80232 | 22766 ft | 378 kts | 24° |
| 2026-04-25 10:27 | 14.07991 | 120.81390 | 22400 ft | 375 kts | 24° |
| 2026-04-25 10:27 | 14.09551 | 120.82146 | 22136 ft | 374 kts | 24° |
| 2026-04-25 10:28 | 14.12683 | 120.83663 | 21660 ft | 370 kts | 24° |
| 2026-04-25 10:28 | 14.15017 | 120.84794 | 21279 ft | 368 kts | 24° |
| 2026-04-25 10:28 | 14.17303 | 120.85902 | 21062 ft | 360 kts | 24° |
| 2026-04-25 10:28 | 14.19526 | 120.86980 | 20918 ft | 352 kts | 24° |
| 2026-04-25 10:29 | 14.21701 | 120.88034 | 20510 ft | 352 kts | 24° |
| 2026-04-25 10:29 | 14.23891 | 120.89097 | 20082 ft | 352 kts | 24° |
| 2026-04-25 10:29 | 14.26094 | 120.90165 | 19662 ft | 352 kts | 24° |
| 2026-04-25 10:29 | 14.28305 | 120.91237 | 19236 ft | 352 kts | 24° |
| 2026-04-25 10:30 | 14.30512 | 120.92307 | 18812 ft | 352 kts | 24° |
| 2026-04-25 10:30 | 14.31976 | 120.93018 | 18531 ft | 352 kts | 24° |
| 2026-04-25 10:30 | 14.34897 | 120.94435 | 17972 ft | 351 kts | 24° |
| 2026-04-25 10:30 | 14.37124 | 120.95517 | 17509 ft | 351 kts | 24° |
| 2026-04-25 10:31 | 14.39309 | 120.96578 | 17091 ft | 350 kts | 24° |
| 2026-04-25 10:31 | 14.41526 | 120.97655 | 16609 ft | 348 kts | 24° |
| 2026-04-25 10:31 | 14.43660 | 120.98692 | 16125 ft | 341 kts | 24° |
| 2026-04-25 10:31 | 14.45795 | 120.99730 | 15629 ft | 334 kts | 24° |
| 2026-04-25 10:32 | 14.47893 | 121.00654 | 15156 ft | 327 kts | 13° |
| 2026-04-25 10:32 | 14.50070 | 121.00967 | 14728 ft | 316 kts | 355° |
| 2026-04-25 10:32 | 14.52172 | 121.00560 | 14305 ft | 307 kts | 336° |
| 2026-04-25 10:32 | 14.54048 | 120.99609 | 13871 ft | 300 kts | 329° |
| 2026-04-25 10:33 | 14.55851 | 120.98544 | 13397 ft | 297 kts | 328° |
| 2026-04-25 10:33 | 14.57594 | 120.97459 | 12986 ft | 294 kts | 327° |
| 2026-04-25 10:33 | 14.59336 | 120.96333 | 12600 ft | 296 kts | 326° |
| 2026-04-25 10:33 | 14.61041 | 120.95208 | 12198 ft | 298 kts | 326° |
| 2026-04-25 10:34 | 14.62718 | 120.94088 | 11826 ft | 300 kts | 326° |
| 2026-04-25 10:34 | 14.64470 | 120.92911 | 11420 ft | 302 kts | 326° |
| 2026-04-25 10:34 | 14.66211 | 120.91736 | 10932 ft | 300 kts | 327° |
| 2026-04-25 10:34 | 14.67929 | 120.90573 | 10612 ft | 300 kts | 327° |
| 2026-04-25 10:35 | 14.69085 | 120.89791 | 10345 ft | 301 kts | 327° |
| 2026-04-25 10:35 | 14.71406 | 120.88218 | 9810 ft | 303 kts | 327° |
| 2026-04-25 10:35 | 14.73167 | 120.87025 | 9388 ft | 304 kts | 327° |
| 2026-04-25 10:35 | 14.74934 | 120.85826 | 8965 ft | 305 kts | 327° |
| 2026-04-25 10:36 | 14.76701 | 120.84628 | 8549 ft | 306 kts | 327° |
| 2026-04-25 10:36 | 14.78487 | 120.83416 | 8129 ft | 307 kts | 327° |
| 2026-04-25 10:36 | 14.80269 | 120.82207 | 7707 ft | 308 kts | 327° |
| 2026-04-25 10:36 | 14.82039 | 120.81004 | 7266 ft | 303 kts | 327° |
| 2026-04-25 10:37 | 14.83792 | 120.79813 | 6891 ft | 292 kts | 327° |
| 2026-04-25 10:37 | 14.85453 | 120.78686 | 6521 ft | 282 kts | 327° |
| 2026-04-25 10:37 | 14.87062 | 120.77592 | 6152 ft | 274 kts | 327° |
| 2026-04-25 10:37 | 14.88638 | 120.76521 | 5780 ft | 267 kts | 327° |
| 2026-04-25 10:38 | 14.90169 | 120.75480 | 5418 ft | 261 kts | 328° |
| 2026-04-25 10:38 | 14.91678 | 120.74454 | 5051 ft | 256 kts | 328° |
| 2026-04-25 10:38 | 14.93144 | 120.73457 | 4688 ft | 251 kts | 328° |
| 2026-04-25 10:38 | 14.94434 | 120.72291 | 4322 ft | 247 kts | 303° |
| 2026-04-25 10:39 | 14.95036 | 120.70650 | 4033 ft | 241 kts | 281° |
| 2026-04-25 10:39 | 14.95330 | 120.68991 | 3941 ft | 226 kts | 282° |
| 2026-04-25 10:39 | 14.95516 | 120.67963 | 3972 ft | 222 kts | 281° |
| 2026-04-25 10:39 | 14.97018 | 120.58691 | 4099 ft | 245 kts | 279° |
| 2026-04-25 10:40 | 14.97484 | 120.56958 | 3966 ft | 251 kts | 297° |
| 2026-04-25 10:40 | 14.97986 | 120.55905 | 3967 ft | 245 kts | 296° |
| 2026-04-25 10:40 | 14.98891 | 120.53768 | 3949 ft | 240 kts | 293° |
| 2026-04-25 10:40 | 14.99310 | 120.52715 | 3954 ft | 238 kts | 293° |
| 2026-04-25 10:41 | 15.00482 | 120.50934 | 3920 ft | 217 kts | 332° |
| 2026-04-25 10:41 | 15.01393 | 120.50558 | 3984 ft | 211 kts | 355° |
| 2026-04-25 10:41 | 15.03421 | 120.50593 | 3848 ft | 225 kts | 4° |
| 2026-04-25 10:41 | 15.04944 | 120.50903 | 3564 ft | 219 kts | 20° |
| 2026-04-25 10:42 | 15.06356 | 120.51463 | 3160 ft | 210 kts | 20° |
| 2026-04-25 10:42 | 15.07673 | 120.51971 | 2778 ft | 196 kts | 20° |
| 2026-04-25 10:42 | 15.08892 | 120.52445 | 2476 ft | 180 kts | 21° |
| 2026-04-25 10:42 | 15.09990 | 120.52872 | 2251 ft | 159 kts | 21° |
| 2026-04-25 10:43 | 15.10998 | 120.53266 | 1915 ft | 153 kts | 21° |
| 2026-04-25 10:43 | 15.11998 | 120.53657 | 1703 ft | 154 kts | 22° |
| 2026-04-25 10:43 | 15.13020 | 120.54058 | 1520 ft | 163 kts | 22° |
| 2026-04-25 10:43 | 15.14065 | 120.54469 | 1280 ft | 164 kts | 22° |
| 2026-04-25 10:44 | 15.14757 | 120.54736 | 1109 ft | 164 kts | 21° |
| 2026-04-25 10:44 | 15.16154 | 120.55270 | 803 ft | 164 kts | 22° |
| 2026-04-25 10:44 | 15.17196 | 120.55688 | 578 ft | 166 kts | 22° |
| 2026-04-25 10:44 | 15.18269 | 120.56111 | 456 ft | 161 kts | 22° |
| 2026-04-25 10:45 | 15.19123 | 120.56451 | 432 ft | 81 kts | 19° |
| 2026-04-25 10:45 | 15.19421 | 120.56571 | 425 ft | 28 kts | 21° |
| 2026-04-25 10:45 | 15.19562 | 120.56622 | 420 ft | 11 kts | 5° |